sensor_id;sensor_type;location;lat;lon;timestamp;temperature;humidity
70813;DHT22;62099;52.170;5.386;2022-10-29T00:02:11;14.10;87.00
70813;DHT22;62099;52.170;5.386;2022-10-29T00:04:37;14.60;84.10
70813;DHT22;62099;52.170;5.386;2022-10-29T00:07:04;13.00;86.60
70813;DHT22;62099;52.170;5.386;2022-10-29T00:09:31;13.00;86.70
70813;DHT22;62099;52.170;5.386;2022-10-29T00:11:57;14.10;87.30
70813;DHT22;62099;52.170;5.386;2022-10-29T00:16:51;12.60;86.70
70813;DHT22;62099;52.170;5.386;2022-10-29T00:19:18;13.90;84.40
70813;DHT22;62099;52.170;5.386;2022-10-29T00:21:45;12.80;87.00
70813;DHT22;62099;52.170;5.386;2022-10-29T00:26:38;12.90;87.20
70813;DHT22;62099;52.170;5.386;2022-10-29T00:29:05;13.80;84.50
70813;DHT22;62099;52.170;5.386;2022-10-29T00:33:59;13.90;84.20
70813;DHT22;62099;52.170;5.386;2022-10-29T00:36:28;12.70;87.40
70813;DHT22;62099;52.170;5.386;2022-10-29T00:38:55;13.00;86.20
70813;DHT22;62099;52.170;5.386;2022-10-29T00:41:25;14.10;88.30
70813;DHT22;62099;52.170;5.386;2022-10-29T00:46:51;13.80;88.30
70813;DHT22;62099;52.170;5.386;2022-10-29T00:49:19;15.40;88.90
70813;DHT22;62099;52.170;5.386;2022-10-29T00:51:46;13.70;84.60
70813;DHT22;62099;52.170;5.386;2022-10-29T00:54:15;12.80;88.00
70813;DHT22;62099;52.170;5.386;2022-10-29T00:56:46;13.70;84.60
70813;DHT22;62099;52.170;5.386;2022-10-29T00:59:15;13.70;84.40
70813;DHT22;62099;52.170;5.386;2022-10-29T01:01:44;12.50;87.70
70813;DHT22;62099;52.170;5.386;2022-10-29T01:04:12;12.60;87.70
70813;DHT22;62099;52.170;5.386;2022-10-29T01:06:40;15.40;88.90
70813;DHT22;62099;52.170;5.386;2022-10-29T01:09:10;12.70;87.70
70813;DHT22;62099;52.170;5.386;2022-10-29T01:12:09;16.00;89.30
70813;DHT22;62099;52.170;5.386;2022-10-29T01:18:16;13.30;87.70
70813;DHT22;62099;52.170;5.386;2022-10-29T01:20:34;12.70;87.40
70813;DHT22;62099;52.170;5.386;2022-10-29T01:34:04;13.60;84.40
70813;DHT22;62099;52.170;5.386;2022-10-29T01:39:09;12.50;85.50
70813;DHT22;62099;52.170;5.386;2022-10-29T01:44:49;13.30;83.90
70813;DHT22;62099;52.170;5.386;2022-10-29T01:47:20;12.60;87.80
70813;DHT22;62099;52.170;5.386;2022-10-29T01:49:53;12.40;87.70
70813;DHT22;62099;52.170;5.386;2022-10-29T01:52:23;13.10;84.10
70813;DHT22;62099;52.170;5.386;2022-10-29T01:54:51;12.10;87.90
70813;DHT22;62099;52.170;5.386;2022-10-29T01:59:51;13.20;84.80
70813;DHT22;62099;52.170;5.386;2022-10-29T02:14:04;14.00;88.60
70813;DHT22;62099;52.170;5.386;2022-10-29T02:16:33;12.30;87.70
70813;DHT22;62099;52.170;5.386;2022-10-29T02:19:00;12.90;88.00
70813;DHT22;62099;52.170;5.386;2022-10-29T02:21:26;11.90;87.70
70813;DHT22;62099;52.170;5.386;2022-10-29T02:23:53;12.80;88.10
70813;DHT22;62099;52.170;5.386;2022-10-29T02:26:20;11.70;87.70
70813;DHT22;62099;52.170;5.386;2022-10-29T02:31:14;12.90;84.20
70813;DHT22;62099;52.170;5.386;2022-10-29T02:33:41;11.60;87.80
70813;DHT22;62099;52.170;5.386;2022-10-29T02:36:08;12.50;85.50
70813;DHT22;62099;52.170;5.386;2022-10-29T02:38:35;13.90;88.90
70813;DHT22;62099;52.170;5.386;2022-10-29T02:41:01;13.10;88.70
70813;DHT22;62099;52.170;5.386;2022-10-29T02:43:28;14.20;89.30
70813;DHT22;62099;52.170;5.386;2022-10-29T02:46:15;12.90;84.40
70813;DHT22;62099;52.170;5.386;2022-10-29T02:51:10;12.50;88.50
70813;DHT22;62099;52.170;5.386;2022-10-29T02:53:36;12.70;85.00
70813;DHT22;62099;52.170;5.386;2022-10-29T02:56:05;14.90;89.80
70813;DHT22;62099;52.170;5.386;2022-10-29T02:58:32;14.90;90.00
70813;DHT22;62099;52.170;5.386;2022-10-29T03:05:53;11.60;85.60
70813;DHT22;62099;52.170;5.386;2022-10-29T03:08:20;12.70;86.00
70813;DHT22;62099;52.170;5.386;2022-10-29T03:10:46;11.60;89.10
70813;DHT22;62099;52.170;5.386;2022-10-29T03:13:13;11.80;89.10
70813;DHT22;62099;52.170;5.386;2022-10-29T03:15:43;11.80;89.00
70813;DHT22;62099;52.170;5.386;2022-10-29T03:18:10;11.70;88.90
70813;DHT22;62099;52.170;5.386;2022-10-29T03:23:05;12.90;85.30
70813;DHT22;62099;52.170;5.386;2022-10-29T03:25:31;14.30;90.00
70813;DHT22;62099;52.170;5.386;2022-10-29T03:27:58;11.70;89.00
70813;DHT22;62099;52.170;5.386;2022-10-29T03:32:52;15.00;90.10
70813;DHT22;62099;52.170;5.386;2022-10-29T03:35:18;15.40;87.00
70813;DHT22;62099;52.170;5.386;2022-10-29T03:37:51;14.20;90.00
70813;DHT22;62099;52.170;5.386;2022-10-29T03:40:18;11.70;88.70
70813;DHT22;62099;52.170;5.386;2022-10-29T03:42:45;14.70;90.00
70813;DHT22;62099;52.170;5.386;2022-10-29T03:45:13;11.70;88.70
70813;DHT22;62099;52.170;5.386;2022-10-29T03:47:40;11.80;88.80
70813;DHT22;62099;52.170;5.386;2022-10-29T03:50:07;11.90;88.80
70813;DHT22;62099;52.170;5.386;2022-10-29T03:52:34;14.20;89.60
70813;DHT22;62099;52.170;5.386;2022-10-29T03:55:01;11.60;88.40
70813;DHT22;62099;52.170;5.386;2022-10-29T03:57:27;11.70;88.60
70813;DHT22;62099;52.170;5.386;2022-10-29T03:59:54;14.80;90.00
70813;DHT22;62099;52.170;5.386;2022-10-29T04:04:49;12.20;87.50
70813;DHT22;62099;52.170;5.386;2022-10-29T04:07:15;14.40;90.00
70813;DHT22;62099;52.170;5.386;2022-10-29T04:09:42;12.80;85.70
70813;DHT22;62099;52.170;5.386;2022-10-29T04:12:09;14.60;90.10
70813;DHT22;62099;52.170;5.386;2022-10-29T04:17:11;12.30;89.30
70813;DHT22;62099;52.170;5.386;2022-10-29T04:19:38;11.70;89.10
70813;DHT22;62099;52.170;5.386;2022-10-29T04:22:05;11.60;89.00
70813;DHT22;62099;52.170;5.386;2022-10-29T04:27:39;11.70;89.30
70813;DHT22;62099;52.170;5.386;2022-10-29T04:30:26;13.70;90.00
70813;DHT22;62099;52.170;5.386;2022-10-29T04:32:58;12.60;85.40
70813;DHT22;62099;52.170;5.386;2022-10-29T04:35:26;11.80;89.40
70813;DHT22;62099;52.170;5.386;2022-10-29T04:37:53;11.60;89.30
70813;DHT22;62099;52.170;5.386;2022-10-29T04:40:23;12.80;89.80
70813;DHT22;62099;52.170;5.386;2022-10-29T04:42:50;12.00;89.70
70813;DHT22;62099;52.170;5.386;2022-10-29T04:45:17;11.50;89.30
70813;DHT22;62099;52.170;5.386;2022-10-29T04:47:44;13.70;90.10
70813;DHT22;62099;52.170;5.386;2022-10-29T04:50:11;12.70;85.70
70813;DHT22;62099;52.170;5.386;2022-10-29T04:52:37;14.90;90.40
70813;DHT22;62099;52.170;5.386;2022-10-29T04:55:04;14.90;90.40
70813;DHT22;62099;52.170;5.386;2022-10-29T04:57:31;11.60;89.20
70813;DHT22;62099;52.170;5.386;2022-10-29T04:59:58;12.10;89.30
70813;DHT22;62099;52.170;5.386;2022-10-29T05:02:25;11.60;89.20
70813;DHT22;62099;52.170;5.386;2022-10-29T05:04:51;13.00;89.90
70813;DHT22;62099;52.170;5.386;2022-10-29T05:07:18;12.30;89.40
70813;DHT22;62099;52.170;5.386;2022-10-29T05:09:45;11.50;89.20
70813;DHT22;62099;52.170;5.386;2022-10-29T05:17:05;11.70;89.40
70813;DHT22;62099;52.170;5.386;2022-10-29T05:19:32;11.90;89.40
70813;DHT22;62099;52.170;5.386;2022-10-29T05:21:59;12.80;89.90
70813;DHT22;62099;52.170;5.386;2022-10-29T05:29:19;14.50;90.30
70813;DHT22;62099;52.170;5.386;2022-10-29T05:31:46;14.40;90.30
70813;DHT22;62099;52.170;5.386;2022-10-29T05:34:13;12.60;90.00
70813;DHT22;62099;52.170;5.386;2022-10-29T05:36:39;12.90;90.00
70813;DHT22;62099;52.170;5.386;2022-10-29T05:41:33;12.20;89.90
70813;DHT22;62099;52.170;5.386;2022-10-29T05:44:00;11.60;89.70
70813;DHT22;62099;52.170;5.386;2022-10-29T05:46:26;11.90;89.70
70813;DHT22;62099;52.170;5.386;2022-10-29T05:51:20;14.50;90.30
70813;DHT22;62099;52.170;5.386;2022-10-29T05:53:47;12.20;89.70
70813;DHT22;62099;52.170;5.386;2022-10-29T05:56:14;12.20;89.70
70813;DHT22;62099;52.170;5.386;2022-10-29T06:01:09;12.30;89.70
70813;DHT22;62099;52.170;5.386;2022-10-29T06:03:36;12.00;89.60
70813;DHT22;62099;52.170;5.386;2022-10-29T06:06:03;12.20;89.50
70813;DHT22;62099;52.170;5.386;2022-10-29T06:08:30;12.40;89.70
70813;DHT22;62099;52.170;5.386;2022-10-29T06:11:00;13.20;86.00
70813;DHT22;62099;52.170;5.386;2022-10-29T06:13:27;12.30;89.60
70813;DHT22;62099;52.170;5.386;2022-10-29T06:15:57;12.40;89.60
70813;DHT22;62099;52.170;5.386;2022-10-29T06:18:25;12.00;89.60
70813;DHT22;62099;52.170;5.386;2022-10-29T06:20:53;13.30;86.70
70813;DHT22;62099;52.170;5.386;2022-10-29T06:23:20;12.80;88.70
70813;DHT22;62099;52.170;5.386;2022-10-29T06:25:47;12.20;89.90
70813;DHT22;62099;52.170;5.386;2022-10-29T06:28:13;13.60;90.10
70813;DHT22;62099;52.170;5.386;2022-10-29T06:30:46;12.20;89.70
70813;DHT22;62099;52.170;5.386;2022-10-29T06:33:17;13.40;86.20
70813;DHT22;62099;52.170;5.386;2022-10-29T06:35:44;12.50;89.80
70813;DHT22;62099;52.170;5.386;2022-10-29T06:38:11;12.30;89.80
70813;DHT22;62099;52.170;5.386;2022-10-29T06:40:39;15.30;90.50
70813;DHT22;62099;52.170;5.386;2022-10-29T06:43:08;15.00;90.30
70813;DHT22;62099;52.170;5.386;2022-10-29T06:45:35;12.50;89.90
70813;DHT22;62099;52.170;5.386;2022-10-29T06:48:02;12.20;90.00
70813;DHT22;62099;52.170;5.386;2022-10-29T06:50:31;15.30;90.60
70813;DHT22;62099;52.170;5.386;2022-10-29T06:53:03;12.50;90.00
70813;DHT22;62099;52.170;5.386;2022-10-29T06:55:31;12.90;90.10
70813;DHT22;62099;52.170;5.386;2022-10-29T06:58:00;12.70;88.20
70813;DHT22;62099;52.170;5.386;2022-10-29T07:00:28;14.30;90.20
70813;DHT22;62099;52.170;5.386;2022-10-29T07:02:55;14.00;90.10
70813;DHT22;62099;52.170;5.386;2022-10-29T07:07:54;13.70;86.00
70813;DHT22;62099;52.170;5.386;2022-10-29T07:10:23;12.50;89.60
70813;DHT22;62099;52.170;5.386;2022-10-29T07:12:51;13.30;89.90
70813;DHT22;62099;52.170;5.386;2022-10-29T07:15:17;13.60;86.50
70813;DHT22;62099;52.170;5.386;2022-10-29T07:18:02;12.40;89.60
70813;DHT22;62099;52.170;5.386;2022-10-29T07:20:32;15.70;90.50
70813;DHT22;62099;52.170;5.386;2022-10-29T07:22:59;13.40;90.00
70813;DHT22;62099;52.170;5.386;2022-10-29T07:25:27;13.90;86.20
70813;DHT22;62099;52.170;5.386;2022-10-29T07:27:54;12.80;85.60
70813;DHT22;62099;52.170;5.386;2022-10-29T07:30:22;13.90;86.50
70813;DHT22;62099;52.170;5.386;2022-10-29T07:32:51;12.90;89.60
70813;DHT22;62099;52.170;5.386;2022-10-29T07:35:17;13.10;89.60
70813;DHT22;62099;52.170;5.386;2022-10-29T07:37:44;15.20;90.10
70813;DHT22;62099;52.170;5.386;2022-10-29T07:42:38;13.40;89.40
70813;DHT22;62099;52.170;5.386;2022-10-29T07:45:05;16.20;90.20
70813;DHT22;62099;52.170;5.386;2022-10-29T07:47:32;14.50;89.60
70813;DHT22;62099;52.170;5.386;2022-10-29T07:49:58;14.40;89.90
70813;DHT22;62099;52.170;5.386;2022-10-29T07:52:25;13.10;89.50
70813;DHT22;62099;52.170;5.386;2022-10-29T07:57:19;13.10;89.50
70813;DHT22;62099;52.170;5.386;2022-10-29T07:59:47;13.40;89.70
70813;DHT22;62099;52.170;5.386;2022-10-29T08:02:15;16.80;90.50
70813;DHT22;62099;52.170;5.386;2022-10-29T08:04:42;16.70;90.30
70813;DHT22;62099;52.170;5.386;2022-10-29T08:09:37;13.80;88.90
70813;DHT22;62099;52.170;5.386;2022-10-29T08:12:03;15.30;89.30
70813;DHT22;62099;52.170;5.386;2022-10-29T08:14:32;14.40;88.60
70813;DHT22;62099;52.170;5.386;2022-10-29T08:16:59;15.70;89.30
70813;DHT22;62099;52.170;5.386;2022-10-29T08:19:25;17.00;90.00
70813;DHT22;62099;52.170;5.386;2022-10-29T08:24:19;15.50;89.20
70813;DHT22;62099;52.170;5.386;2022-10-29T08:26:46;15.80;89.40
70813;DHT22;62099;52.170;5.386;2022-10-29T08:29:12;14.20;88.70
70813;DHT22;62099;52.170;5.386;2022-10-29T08:31:39;14.20;88.80
70813;DHT22;62099;52.170;5.386;2022-10-29T08:34:06;17.40;90.10
70813;DHT22;62099;52.170;5.386;2022-10-29T08:36:36;14.40;88.70
70813;DHT22;62099;52.170;5.386;2022-10-29T08:39:03;15.70;86.10
70813;DHT22;62099;52.170;5.386;2022-10-29T08:41:45;15.40;87.20
70813;DHT22;62099;52.170;5.386;2022-10-29T08:46:55;15.00;88.30
70813;DHT22;62099;52.170;5.386;2022-10-29T08:49:36;15.20;88.40
70813;DHT22;62099;52.170;5.386;2022-10-29T08:52:17;17.60;89.00
70813;DHT22;62099;52.170;5.386;2022-10-29T08:55:18;15.80;87.60
70813;DHT22;62099;52.170;5.386;2022-10-29T08:57:55;18.40;89.40
70813;DHT22;62099;52.170;5.386;2022-10-29T09:00:30;17.20;85.00
70813;DHT22;62099;52.170;5.386;2022-10-29T09:02:59;16.40;83.30
70813;DHT22;62099;52.170;5.386;2022-10-29T09:05:30;17.80;87.20
70813;DHT22;62099;52.170;5.386;2022-10-29T09:11:32;17.40;82.90
70813;DHT22;62099;52.170;5.386;2022-10-29T09:26:04;17.30;82.90
70813;DHT22;62099;52.170;5.386;2022-10-29T09:31:57;17.40;83.10
70813;DHT22;62099;52.170;5.386;2022-10-29T09:34:32;19.80;87.30
70813;DHT22;62099;52.170;5.386;2022-10-29T09:37:00;17.60;83.20
70813;DHT22;62099;52.170;5.386;2022-10-29T09:39:32;17.70;82.50
70813;DHT22;62099;52.170;5.386;2022-10-29T09:42:01;17.80;83.30
70813;DHT22;62099;52.170;5.386;2022-10-29T09:44:42;17.70;82.40
70813;DHT22;62099;52.170;5.386;2022-10-29T09:52:40;19.60;85.80
70813;DHT22;62099;52.170;5.386;2022-10-29T09:55:16;18.10;82.60
70813;DHT22;62099;52.170;5.386;2022-10-29T09:57:44;18.10;82.40
70813;DHT22;62099;52.170;5.386;2022-10-29T10:00:33;19.90;85.30
70813;DHT22;62099;52.170;5.386;2022-10-29T10:05:54;18.30;81.70
70813;DHT22;62099;52.170;5.386;2022-10-29T10:08:21;18.30;81.70
70813;DHT22;62099;52.170;5.386;2022-10-29T10:10:53;18.70;82.00
70813;DHT22;62099;52.170;5.386;2022-10-29T10:13:26;19.60;85.30
70813;DHT22;62099;52.170;5.386;2022-10-29T10:15:59;18.30;81.40
70813;DHT22;62099;52.170;5.386;2022-10-29T10:18:37;18.60;81.10
70813;DHT22;62099;52.170;5.386;2022-10-29T10:21:13;18.70;80.70
70813;DHT22;62099;52.170;5.386;2022-10-29T10:23:45;18.70;80.40
70813;DHT22;62099;52.170;5.386;2022-10-29T10:26:36;18.80;79.90
70813;DHT22;62099;52.170;5.386;2022-10-29T10:29:16;19.00;79.70
70813;DHT22;62099;52.170;5.386;2022-10-29T10:37:13;19.30;78.80
70813;DHT22;62099;52.170;5.386;2022-10-29T10:44:49;19.60;77.90
70813;DHT22;62099;52.170;5.386;2022-10-29T10:47:20;19.60;77.60
70813;DHT22;62099;52.170;5.386;2022-10-29T10:49:48;18.40;76.20
70813;DHT22;62099;52.170;5.386;2022-10-29T10:52:27;19.70;76.70
70813;DHT22;62099;52.170;5.386;2022-10-29T10:55:15;18.80;78.00
70813;DHT22;62099;52.170;5.386;2022-10-29T10:57:54;19.70;76.40
70813;DHT22;62099;52.170;5.386;2022-10-29T11:00:22;19.80;76.40
70813;DHT22;62099;52.170;5.386;2022-10-29T11:08:25;20.10;75.90
70813;DHT22;62099;52.170;5.386;2022-10-29T11:11:06;20.00;76.30
70813;DHT22;62099;52.170;5.386;2022-10-29T11:13:33;20.10;75.10
70813;DHT22;62099;52.170;5.386;2022-10-29T11:16:16;20.10;74.90
70813;DHT22;62099;52.170;5.386;2022-10-29T11:18:55;20.00;74.70
70813;DHT22;62099;52.170;5.386;2022-10-29T11:21:43;20.80;77.40
70813;DHT22;62099;52.170;5.386;2022-10-29T11:24:15;19.80;74.90
70813;DHT22;62099;52.170;5.386;2022-10-29T11:26:48;19.90;75.10
70813;DHT22;62099;52.170;5.386;2022-10-29T11:32:29;20.10;74.70
70813;DHT22;62099;52.170;5.386;2022-10-29T11:35:07;21.10;77.10
70813;DHT22;62099;52.170;5.386;2022-10-29T11:37:47;20.10;73.40
70813;DHT22;62099;52.170;5.386;2022-10-29T11:40:27;20.20;73.90
70813;DHT22;62099;52.170;5.386;2022-10-29T11:42:55;20.80;73.40
70813;DHT22;62099;52.170;5.386;2022-10-29T11:51:50;20.30;73.00
70813;DHT22;62099;52.170;5.386;2022-10-29T11:57:00;20.40;72.20
70813;DHT22;62099;52.170;5.386;2022-10-29T11:59:41;20.60;72.40
70813;DHT22;62099;52.170;5.386;2022-10-29T12:02:32;20.70;72.10
70813;DHT22;62099;52.170;5.386;2022-10-29T12:05:15;21.20;75.30
70813;DHT22;62099;52.170;5.386;2022-10-29T12:08:17;21.40;74.50
70813;DHT22;62099;52.170;5.386;2022-10-29T12:10:49;21.90;71.80
70813;DHT22;62099;52.170;5.386;2022-10-29T12:16:48;22.70;73.90
70813;DHT22;62099;52.170;5.386;2022-10-29T12:19:33;21.80;70.50
70813;DHT22;62099;52.170;5.386;2022-10-29T12:27:53;22.20;69.10
70813;DHT22;62099;52.170;5.386;2022-10-29T12:30:26;22.80;69.30
70813;DHT22;62099;52.170;5.386;2022-10-29T12:33:26;22.50;68.30
70813;DHT22;62099;52.170;5.386;2022-10-29T12:36:09;22.80;68.50
70813;DHT22;62099;52.170;5.386;2022-10-29T12:38:47;23.00;68.00
70813;DHT22;62099;52.170;5.386;2022-10-29T12:41:24;23.20;66.90
70813;DHT22;62099;52.170;5.386;2022-10-29T12:44:00;23.30;66.90
70813;DHT22;62099;52.170;5.386;2022-10-29T12:51:55;23.60;66.10
70813;DHT22;62099;52.170;5.386;2022-10-29T12:54:42;23.60;66.20
70813;DHT22;62099;52.170;5.386;2022-10-29T12:59:42;23.40;65.40
70813;DHT22;62099;52.170;5.386;2022-10-29T13:02:29;23.50;66.20
70813;DHT22;62099;52.170;5.386;2022-10-29T13:16:01;25.30;63.00
70813;DHT22;62099;52.170;5.386;2022-10-29T13:18:43;24.60;63.20
70813;DHT22;62099;52.170;5.386;2022-10-29T13:21:11;24.60;64.90
70813;DHT22;62099;52.170;5.386;2022-10-29T13:23:38;24.90;64.10
70813;DHT22;62099;52.170;5.386;2022-10-29T13:26:08;25.00;63.80
70813;DHT22;62099;52.170;5.386;2022-10-29T13:41:50;24.20;63.40
70813;DHT22;62099;52.170;5.386;2022-10-29T13:44:24;24.10;63.90
70813;DHT22;62099;52.170;5.386;2022-10-29T13:46:59;24.00;64.20
70813;DHT22;62099;52.170;5.386;2022-10-29T13:52:14;24.20;64.20
70813;DHT22;62099;52.170;5.386;2022-10-29T13:54:49;24.30;64.10
70813;DHT22;62099;52.170;5.386;2022-10-29T13:57:21;24.20;64.00
70813;DHT22;62099;52.170;5.386;2022-10-29T14:00:06;24.10;64.10
70813;DHT22;62099;52.170;5.386;2022-10-29T14:08:11;24.40;64.90
70813;DHT22;62099;52.170;5.386;2022-10-29T14:16:09;23.70;64.90
70813;DHT22;62099;52.170;5.386;2022-10-29T14:18:47;23.50;65.10
70813;DHT22;62099;52.170;5.386;2022-10-29T14:21:22;23.70;65.40
70813;DHT22;62099;52.170;5.386;2022-10-29T14:23:56;23.20;65.40
70813;DHT22;62099;52.170;5.386;2022-10-29T14:26:23;23.00;65.60
70813;DHT22;62099;52.170;5.386;2022-10-29T14:28:51;22.90;65.50
70813;DHT22;62099;52.170;5.386;2022-10-29T14:31:20;22.90;66.10
70813;DHT22;62099;52.170;5.386;2022-10-29T14:34:01;22.80;66.20
70813;DHT22;62099;52.170;5.386;2022-10-29T14:36:47;22.70;66.40
70813;DHT22;62099;52.170;5.386;2022-10-29T14:39:26;22.50;66.20
70813;DHT22;62099;52.170;5.386;2022-10-29T14:42:03;22.50;66.80
70813;DHT22;62099;52.170;5.386;2022-10-29T14:44:32;22.40;67.00
70813;DHT22;62099;52.170;5.386;2022-10-29T14:47:02;22.40;67.20
70813;DHT22;62099;52.170;5.386;2022-10-29T14:49:31;22.70;67.50
70813;DHT22;62099;52.170;5.386;2022-10-29T14:52:03;22.30;67.00
70813;DHT22;62099;52.170;5.386;2022-10-29T14:54:34;22.30;67.60
70813;DHT22;62099;52.170;5.386;2022-10-29T14:57:18;22.20;67.10
70813;DHT22;62099;52.170;5.386;2022-10-29T14:59:55;22.10;67.80
70813;DHT22;62099;52.170;5.386;2022-10-29T15:02:22;21.80;70.10
70813;DHT22;62099;52.170;5.386;2022-10-29T15:08:13;21.70;68.20
70813;DHT22;62099;52.170;5.386;2022-10-29T15:10:47;21.50;68.40
70813;DHT22;62099;52.170;5.386;2022-10-29T15:16:17;21.20;70.20
70813;DHT22;62099;52.170;5.386;2022-10-29T15:18:47;22.90;72.00
70813;DHT22;62099;52.170;5.386;2022-10-29T15:21:28;21.40;71.10
70813;DHT22;62099;52.170;5.386;2022-10-29T15:24:06;20.90;69.60
70813;DHT22;62099;52.170;5.386;2022-10-29T15:26:35;20.80;69.90
70813;DHT22;62099;52.170;5.386;2022-10-29T15:29:09;21.20;70.30
70813;DHT22;62099;52.170;5.386;2022-10-29T15:34:27;20.60;70.60
70813;DHT22;62099;52.170;5.386;2022-10-29T15:36:54;20.50;70.80
70813;DHT22;62099;52.170;5.386;2022-10-29T15:39:26;20.40;71.10
70813;DHT22;62099;52.170;5.386;2022-10-29T15:41:58;20.30;71.20
70813;DHT22;62099;52.170;5.386;2022-10-29T15:46:54;20.20;71.60
70813;DHT22;62099;52.170;5.386;2022-10-29T15:49:26;20.10;71.80
70813;DHT22;62099;52.170;5.386;2022-10-29T15:51:59;20.00;71.90
70813;DHT22;62099;52.170;5.386;2022-10-29T15:54:27;19.80;72.00
70813;DHT22;62099;52.170;5.386;2022-10-29T15:56:53;18.90;73.00
70813;DHT22;62099;52.170;5.386;2022-10-29T15:59:23;19.80;71.80
70813;DHT22;62099;52.170;5.386;2022-10-29T16:01:51;19.80;72.50
70813;DHT22;62099;52.170;5.386;2022-10-29T16:04:17;19.70;71.80
70813;DHT22;62099;52.170;5.386;2022-10-29T16:06:44;19.70;72.70
70813;DHT22;62099;52.170;5.386;2022-10-29T16:09:16;20.40;73.20
70813;DHT22;62099;52.170;5.386;2022-10-29T16:11:45;19.40;72.80
70813;DHT22;62099;52.170;5.386;2022-10-29T16:14:11;19.50;73.00
70813;DHT22;62099;52.170;5.386;2022-10-29T16:16:38;19.60;73.20
70813;DHT22;62099;52.170;5.386;2022-10-29T16:19:05;19.50;73.30
70813;DHT22;62099;52.170;5.386;2022-10-29T16:21:32;19.40;73.40
70813;DHT22;62099;52.170;5.386;2022-10-29T16:23:59;19.40;73.60
70813;DHT22;62099;52.170;5.386;2022-10-29T16:26:25;19.50;73.70
70813;DHT22;62099;52.170;5.386;2022-10-29T16:28:52;19.30;73.80
70813;DHT22;62099;52.170;5.386;2022-10-29T16:31:26;19.20;73.90
70813;DHT22;62099;52.170;5.386;2022-10-29T16:33:56;19.10;73.90
70813;DHT22;62099;52.170;5.386;2022-10-29T16:36:23;19.10;74.10
70813;DHT22;62099;52.170;5.386;2022-10-29T16:38:50;19.00;74.20
70813;DHT22;62099;52.170;5.386;2022-10-29T16:41:17;18.90;74.30
70813;DHT22;62099;52.170;5.386;2022-10-29T16:43:45;18.90;73.50
70813;DHT22;62099;52.170;5.386;2022-10-29T16:46:12;18.90;74.50
70813;DHT22;62099;52.170;5.386;2022-10-29T16:48:39;18.80;74.50
70813;DHT22;62099;52.170;5.386;2022-10-29T16:51:07;17.80;75.90
70813;DHT22;62099;52.170;5.386;2022-10-29T16:53:33;18.70;74.70
70813;DHT22;62099;52.170;5.386;2022-10-29T16:56:00;18.50;74.30
70813;DHT22;62099;52.170;5.386;2022-10-29T16:58:27;19.60;77.00
70813;DHT22;62099;52.170;5.386;2022-10-29T17:01:04;18.50;77.30
70813;DHT22;62099;52.170;5.386;2022-10-29T17:03:32;18.60;75.00
70813;DHT22;62099;52.170;5.386;2022-10-29T17:06:04;18.10;74.40
70813;DHT22;62099;52.170;5.386;2022-10-29T17:08:32;18.50;75.10
70813;DHT22;62099;52.170;5.386;2022-10-29T17:11:00;18.50;75.10
70813;DHT22;62099;52.170;5.386;2022-10-29T17:13:27;18.60;75.20
70813;DHT22;62099;52.170;5.386;2022-10-29T17:15:54;18.10;76.80
70813;DHT22;62099;52.170;5.386;2022-10-29T17:18:20;18.50;75.30
70813;DHT22;62099;52.170;5.386;2022-10-29T17:20:57;18.90;76.90
70813;DHT22;62099;52.170;5.386;2022-10-29T17:23:24;18.00;76.50
70813;DHT22;62099;52.170;5.386;2022-10-29T17:25:55;18.10;76.70
70813;DHT22;62099;52.170;5.386;2022-10-29T17:28:24;18.60;75.20
70813;DHT22;62099;52.170;5.386;2022-10-29T17:30:51;18.60;75.30
70813;DHT22;62099;52.170;5.386;2022-10-29T17:33:18;17.30;76.60
70813;DHT22;62099;52.170;5.386;2022-10-29T17:35:45;17.50;76.60
70813;DHT22;62099;52.170;5.386;2022-10-29T17:38:11;18.50;75.30
70813;DHT22;62099;52.170;5.386;2022-10-29T17:40:38;17.30;76.90
70813;DHT22;62099;52.170;5.386;2022-10-29T17:43:05;18.50;75.50
70813;DHT22;62099;52.170;5.386;2022-10-29T17:45:32;18.40;75.50
70813;DHT22;62099;52.170;5.386;2022-10-29T17:47:58;18.40;75.20
70813;DHT22;62099;52.170;5.386;2022-10-29T17:50:26;18.40;75.60
70813;DHT22;62099;52.170;5.386;2022-10-29T17:52:53;17.40;77.20
70813;DHT22;62099;52.170;5.386;2022-10-29T17:55:23;17.70;77.40
70813;DHT22;62099;52.170;5.386;2022-10-29T17:57:49;18.40;77.90
70813;DHT22;62099;52.170;5.386;2022-10-29T18:00:16;18.20;76.00
70813;DHT22;62099;52.170;5.386;2022-10-29T18:02:43;20.10;78.80
70813;DHT22;62099;52.170;5.386;2022-10-29T18:05:10;17.30;77.60
70813;DHT22;62099;52.170;5.386;2022-10-29T18:07:36;18.20;76.20
70813;DHT22;62099;52.170;5.386;2022-10-29T18:10:03;18.10;76.30
70813;DHT22;62099;52.170;5.386;2022-10-29T18:12:30;20.30;79.20
70813;DHT22;62099;52.170;5.386;2022-10-29T18:14:57;18.30;76.40
70813;DHT22;62099;52.170;5.386;2022-10-29T18:22:18;18.30;75.70
70813;DHT22;62099;52.170;5.386;2022-10-29T18:24:45;18.30;75.50
70813;DHT22;62099;52.170;5.386;2022-10-29T18:27:11;18.40;75.90
70813;DHT22;62099;52.170;5.386;2022-10-29T18:29:38;18.40;75.70
70813;DHT22;62099;52.170;5.386;2022-10-29T18:32:05;19.10;78.40
70813;DHT22;62099;52.170;5.386;2022-10-29T18:34:32;18.50;75.50
70813;DHT22;62099;52.170;5.386;2022-10-29T18:37:00;19.70;77.80
70813;DHT22;62099;52.170;5.386;2022-10-29T18:39:26;18.20;75.20
70813;DHT22;62099;52.170;5.386;2022-10-29T18:41:53;17.40;76.90
70813;DHT22;62099;52.170;5.386;2022-10-29T18:44:20;18.70;75.20
70813;DHT22;62099;52.170;5.386;2022-10-29T18:46:46;18.60;75.20
70813;DHT22;62099;52.170;5.386;2022-10-29T18:49:13;18.50;75.10
70813;DHT22;62099;52.170;5.386;2022-10-29T18:51:40;18.40;75.20
70813;DHT22;62099;52.170;5.386;2022-10-29T18:54:09;18.30;75.30
70813;DHT22;62099;52.170;5.386;2022-10-29T18:56:36;18.10;77.30
70813;DHT22;62099;52.170;5.386;2022-10-29T18:59:02;18.30;75.40
70813;DHT22;62099;52.170;5.386;2022-10-29T19:01:30;20.40;78.60
70813;DHT22;62099;52.170;5.386;2022-10-29T19:04:00;18.10;75.50
70813;DHT22;62099;52.170;5.386;2022-10-29T19:06:29;18.70;78.00
70813;DHT22;62099;52.170;5.386;2022-10-29T19:09:02;18.10;75.80
70813;DHT22;62099;52.170;5.386;2022-10-29T19:11:29;17.80;77.90
70813;DHT22;62099;52.170;5.386;2022-10-29T19:13:56;18.00;76.10
70813;DHT22;62099;52.170;5.386;2022-10-29T19:16:24;16.80;77.70
70813;DHT22;62099;52.170;5.386;2022-10-29T19:18:59;17.90;76.10
70813;DHT22;62099;52.170;5.386;2022-10-29T19:21:26;17.90;76.20
70813;DHT22;62099;52.170;5.386;2022-10-29T19:23:57;17.50;78.10
70813;DHT22;62099;52.170;5.386;2022-10-29T19:26:26;16.80;78.00
70813;DHT22;62099;52.170;5.386;2022-10-29T19:28:54;19.00;79.50
70813;DHT22;62099;52.170;5.386;2022-10-29T19:31:23;17.80;76.80
70813;DHT22;62099;52.170;5.386;2022-10-29T19:33:54;16.90;78.70
70813;DHT22;62099;52.170;5.386;2022-10-29T19:36:22;17.30;78.90